createdAt,value
2023-01-29T00:00:10.149Z,101237.19
2023-01-29T00:02:39.724Z,101244.94
2023-01-29T00:05:26.046Z,101239.00
2023-01-29T00:07:55.303Z,101250.06
2023-01-29T00:10:24.264Z,101245.75
2023-01-29T00:12:51.871Z,101245.81
2023-01-29T00:15:19.195Z,101245.91
2023-01-29T00:17:46.685Z,101247.66
2023-01-29T00:20:14.347Z,101244.28
2023-01-29T00:22:41.718Z,101255.38
2023-01-29T00:25:09.630Z,101261.34
2023-01-29T00:27:37.399Z,101251.06
2023-01-29T00:30:12.981Z,101245.06
2023-01-29T00:32:40.799Z,101247.59
2023-01-29T00:35:09.098Z,101258.69
2023-01-29T00:37:36.454Z,101263.00
2023-01-29T00:40:05.228Z,101262.94
2023-01-29T00:42:51.001Z,101251.00
2023-01-29T00:45:18.563Z,101270.59
2023-01-29T00:47:45.818Z,101266.34
2023-01-29T00:50:13.277Z,101274.03
2023-01-29T00:52:41.164Z,101274.09
2023-01-29T00:55:10.355Z,101280.13
2023-01-29T00:57:37.972Z,101276.66
2023-01-29T01:00:09.421Z,101283.41
2023-01-29T01:02:59.330Z,101282.66
2023-01-29T01:05:27.736Z,101289.56
2023-01-29T01:07:57.357Z,101281.78
2023-01-29T01:10:31.337Z,101286.09
2023-01-29T01:12:58.617Z,101281.00
2023-01-29T01:15:29.612Z,101275.03
2023-01-29T01:17:59.502Z,101271.59
2023-01-29T01:20:29.350Z,101274.16
2023-01-29T01:22:56.649Z,101270.00
2023-01-29T01:25:24.591Z,101273.41
2023-01-29T01:30:26.633Z,101264.88
2023-01-29T01:32:54.524Z,101268.31
2023-01-29T01:35:21.654Z,101274.28
2023-01-29T01:37:49.371Z,101278.59
2023-01-29T01:40:22.220Z,101281.13
2023-01-29T01:42:51.066Z,101283.72
2023-01-29T01:45:29.126Z,101275.19
2023-01-29T01:48:13.094Z,101275.19
2023-01-29T01:50:51.060Z,101288.03
2023-01-29T01:53:26.200Z,101283.75
2023-01-29T01:56:02.362Z,101294.81
2023-01-29T01:58:33.324Z,101293.94
2023-01-29T02:01:01.208Z,101300.81
2023-01-29T02:03:48.116Z,101293.09
2023-01-29T02:06:33.828Z,101290.53
2023-01-29T02:09:31.189Z,101296.44
2023-01-29T02:11:58.606Z,101293.00
2023-01-29T02:14:25.853Z,101299.00
2023-01-29T02:16:53.375Z,101300.69
2023-01-29T02:19:29.836Z,101307.53
2023-01-29T02:22:07.049Z,101299.84
2023-01-29T02:24:40.579Z,101308.37
2023-01-29T02:27:46.180Z,101306.66
2023-01-29T02:30:34.276Z,101303.28
2023-01-29T02:33:09.350Z,101310.16
2023-01-29T02:35:46.657Z,101313.56
2023-01-29T02:38:17.977Z,101313.53
2023-01-29T02:40:50.423Z,101311.84
2023-01-29T02:43:29.729Z,101318.66
2023-01-29T02:46:05.243Z,101316.09
2023-01-29T02:48:46.383Z,101320.38
2023-01-29T02:51:49.765Z,101309.31
2023-01-29T02:54:48.833Z,101316.13
2023-01-29T02:57:30.064Z,101319.59
2023-01-29T03:00:14.203Z,101325.56
2023-01-29T03:02:58.765Z,101317.06
2023-01-29T03:05:31.455Z,101322.16
2023-01-29T03:08:03.098Z,101327.31
2023-01-29T03:10:35.701Z,101329.84
2023-01-29T03:13:29.775Z,101344.34
2023-01-29T03:16:05.071Z,101334.09
2023-01-29T03:18:43.613Z,101334.09
2023-01-29T03:21:48.658Z,101334.94
2023-01-29T03:24:37.565Z,101335.78
2023-01-29T03:27:27.408Z,101339.13
2023-01-29T03:30:15.077Z,101336.53
2023-01-29T03:32:44.998Z,101344.25
2023-01-29T03:35:14.624Z,101339.97
2023-01-29T03:37:46.161Z,101342.50
2023-01-29T03:40:14.397Z,101343.34
2023-01-29T03:43:03.994Z,101345.06
2023-01-29T03:45:58.747Z,101357.88
2023-01-29T03:48:37.418Z,101358.72
2023-01-29T03:51:16.842Z,101350.19
2023-01-29T03:54:04.286Z,101357.00
2023-01-29T03:57:02.313Z,101354.50
2023-01-29T03:59:39.824Z,101361.28
2023-01-29T04:02:27.928Z,101357.06
2023-01-29T04:04:59.163Z,101362.19
2023-01-29T04:07:29.701Z,101362.13
2023-01-29T04:10:09.508Z,101356.13
2023-01-29T04:12:41.370Z,101360.50
2023-01-29T04:15:11.888Z,101345.94
2023-01-29T04:17:40.726Z,101344.22
2023-01-29T04:20:09.694Z,101354.47
2023-01-29T04:22:38.800Z,101355.34
2023-01-29T04:25:15.800Z,101357.03
2023-01-29T04:28:22.137Z,101352.81
2023-01-29T04:31:04.241Z,101351.94
2023-01-29T04:33:36.215Z,101348.50
2023-01-29T04:36:23.610Z,101354.47
2023-01-29T04:39:17.519Z,101351.94
2023-01-29T04:42:11.079Z,101355.34
2023-01-29T04:45:09.138Z,101349.28
2023-01-29T04:48:00.408Z,101360.47
2023-01-29T04:50:56.988Z,101363.03
2023-01-29T04:53:48.504Z,101362.16
2023-01-29T04:56:27.395Z,101356.25
2023-01-29T04:59:07.876Z,101364.81
2023-01-29T05:01:35.927Z,101358.75
2023-01-29T05:04:06.868Z,101353.59
2023-01-29T05:06:35.912Z,101352.75
2023-01-29T05:09:03.960Z,101357.84
2023-01-29T05:11:32.750Z,101361.25
2023-01-29T05:14:02.801Z,101360.47
2023-01-29T05:16:41.867Z,101356.22
2023-01-29T05:19:10.496Z,101351.91
2023-01-29T05:21:41.029Z,101351.94
2023-01-29T05:24:20.443Z,101370.72
2023-01-29T05:27:08.298Z,101372.47
2023-01-29T05:29:35.514Z,101363.91
2023-01-29T05:32:04.067Z,101366.47
2023-01-29T05:34:31.205Z,101354.53
2023-01-29T05:36:58.267Z,101357.94
2023-01-29T05:39:25.702Z,101355.34
2023-01-29T05:41:52.787Z,101348.53
2023-01-29T05:44:20.526Z,101362.16
2023-01-29T05:46:47.990Z,101361.31
2023-01-29T05:49:17.742Z,101367.31
2023-01-29T05:51:44.906Z,101362.22
2023-01-29T05:54:12.928Z,101362.31
2023-01-29T05:56:40.514Z,101366.50
2023-01-29T05:59:07.734Z,101358.81
2023-01-29T06:01:35.217Z,101356.25
2023-01-29T06:04:02.790Z,101357.06
2023-01-29T06:06:29.883Z,101367.31
2023-01-29T06:08:57.000Z,101366.47
2023-01-29T06:11:24.705Z,101368.16
2023-01-29T06:13:51.875Z,101367.31
2023-01-29T06:16:18.968Z,101381.81
2023-01-29T06:18:46.328Z,101380.16
2023-01-29T06:21:14.205Z,101387.81
2023-01-29T06:23:41.364Z,101399.81
2023-01-29T06:26:11.223Z,101392.16
2023-01-29T06:28:38.590Z,101398.94
2023-01-29T06:31:37.214Z,101394.69
2023-01-29T06:33:54.395Z,101410.91
2023-01-29T06:36:21.645Z,101410.91
2023-01-29T06:38:48.828Z,101418.56
2023-01-29T06:41:22.726Z,101419.41
2023-01-29T06:43:49.880Z,101418.59
2023-01-29T06:46:17.568Z,101430.50
2023-01-29T06:48:44.740Z,101427.09
2023-01-29T06:51:12.192Z,101422.84
2023-01-29T06:53:40.015Z,101437.34
2023-01-29T06:56:08.165Z,101437.31
2023-01-29T06:58:38.826Z,101432.25
2023-01-29T07:01:17.513Z,101439.06
2023-01-29T07:03:52.485Z,101430.56
2023-01-29T07:06:20.230Z,101439.94
2023-01-29T07:08:47.373Z,101441.66
2023-01-29T07:11:14.592Z,101433.97
2023-01-29T07:13:42.022Z,101437.37
2023-01-29T07:16:09.776Z,101437.37
2023-01-29T07:18:37.462Z,101431.41
2023-01-29T07:21:06.902Z,101434.81
2023-01-29T07:23:35.020Z,101434.84
2023-01-29T07:26:06.214Z,101428.00
2023-01-29T07:28:40.563Z,101431.38
2023-01-29T07:31:08.588Z,101424.56
2023-01-29T07:33:35.990Z,101426.28
2023-01-29T07:36:07.751Z,101423.72
2023-01-29T07:38:34.991Z,101417.72
2023-01-29T07:41:03.368Z,101418.56
2023-01-29T07:43:30.743Z,101415.16
2023-01-29T07:46:01.779Z,101415.12
2023-01-29T07:48:29.275Z,101407.50
2023-01-29T07:50:57.169Z,101420.28
2023-01-29T07:53:24.644Z,101416.91
2023-01-29T07:55:52.100Z,101408.38
2023-01-29T07:58:19.220Z,101414.31
2023-01-29T08:00:46.400Z,101417.72
2023-01-29T08:03:16.361Z,101411.75
2023-01-29T08:05:44.665Z,101405.72
2023-01-29T08:08:12.153Z,101409.13
2023-01-29T08:10:40.277Z,101418.59
2023-01-29T08:13:07.776Z,101410.03
2023-01-29T08:18:22.774Z,101413.41
2023-01-29T08:20:49.850Z,101418.53
2023-01-29T08:23:17.009Z,101418.53
2023-01-29T08:25:44.722Z,101415.91
2023-01-29T08:28:12.419Z,101411.69
2023-01-29T08:30:39.898Z,101416.87
2023-01-29T08:33:07.299Z,101419.44
2023-01-29T08:35:34.461Z,101421.97
2023-01-29T08:38:03.414Z,101432.19
2023-01-29T08:40:33.061Z,101428.81
2023-01-29T08:43:06.275Z,101433.87
2023-01-29T08:45:36.996Z,101437.28
2023-01-29T08:48:04.404Z,101440.69
2023-01-29T08:50:32.401Z,101447.63
2023-01-29T08:53:00.892Z,101446.75
2023-01-29T08:55:28.679Z,101456.12
2023-01-29T08:57:57.382Z,101455.28
2023-01-29T09:00:24.992Z,101453.53
2023-01-29T09:02:52.171Z,101463.81
2023-01-29T09:05:19.699Z,101462.97
2023-01-29T09:07:47.281Z,101468.03
2023-01-29T09:10:14.399Z,101464.63
2023-01-29T09:12:41.477Z,101467.19
2023-01-29T09:15:09.484Z,101465.53
2023-01-29T09:17:36.643Z,101486.00
2023-01-29T09:20:06.159Z,101480.00
2023-01-29T09:22:33.766Z,101475.75
2023-01-29T09:25:00.977Z,101475.75
2023-01-29T09:27:28.273Z,101481.72
2023-01-29T09:29:55.674Z,101481.75
2023-01-29T09:32:49.749Z,101473.22
2023-01-29T09:35:10.580Z,101480.00
2023-01-29T09:37:37.732Z,101475.75
2023-01-29T09:40:05.419Z,101491.97
2023-01-29T09:42:36.152Z,101485.13
2023-01-29T09:45:10.678Z,101493.69
2023-01-29T09:47:38.225Z,101491.97
2023-01-29T09:50:19.085Z,101499.62
2023-01-29T09:52:53.114Z,101489.41
2023-01-29T09:55:32.615Z,101493.69
2023-01-29T09:58:04.105Z,101503.91
2023-01-29T10:00:34.685Z,101501.34
2023-01-29T10:03:14.397Z,101491.97
2023-01-29T10:06:03.452Z,101493.69
2023-01-29T10:08:41.036Z,101504.75
2023-01-29T10:11:36.125Z,101490.25
2023-01-29T10:14:20.783Z,101487.69
2023-01-29T10:17:12.249Z,101486.00
2023-01-29T10:20:17.260Z,101471.47
2023-01-29T10:22:56.517Z,101480.87
2023-01-29T10:25:24.276Z,101476.63
2023-01-29T10:27:53.612Z,101475.75
2023-01-29T10:30:32.847Z,101480.87
2023-01-29T10:33:05.665Z,101483.44
2023-01-29T10:35:41.736Z,101478.31
2023-01-29T10:38:27.865Z,101485.16
2023-01-29T10:41:11.986Z,101488.56
2023-01-29T10:44:03.111Z,101481.72
2023-01-29T10:47:04.626Z,101478.31
2023-01-29T10:49:41.179Z,101488.53
2023-01-29T10:52:22.572Z,101486.81
2023-01-29T10:55:04.015Z,101482.56
2023-01-29T10:57:50.067Z,101483.41
2023-01-29T11:00:26.727Z,101476.59
2023-01-29T11:02:53.979Z,101473.22
2023-01-29T11:05:25.778Z,101468.94
2023-01-29T11:08:23.583Z,101461.22
2023-01-29T11:11:06.301Z,101468.94
2023-01-29T11:13:38.884Z,101463.81
2023-01-29T11:16:07.184Z,101445.06
2023-01-29T11:18:50.651Z,101457.84
2023-01-29T11:21:19.692Z,101457.84
2023-01-29T11:23:47.018Z,101457.84
2023-01-29T11:26:18.661Z,101451.88
2023-01-29T11:28:48.854Z,101447.63
2023-01-29T11:31:27.268Z,101428.84
2023-01-29T11:34:21.864Z,101434.84
2023-01-29T11:36:58.922Z,101433.97
2023-01-29T11:39:27.777Z,101427.13
2023-01-29T11:42:05.151Z,101419.41
2023-01-29T11:44:41.973Z,101411.75
2023-01-29T11:47:12.623Z,101415.94
2023-01-29T11:49:45.605Z,101412.53
2023-01-29T11:52:14.041Z,101403.94
2023-01-29T11:54:49.023Z,101404.84
2023-01-29T11:57:31.496Z,101402.31
2023-01-29T12:00:06.660Z,101386.94
2023-01-29T12:02:46.257Z,101389.53
2023-01-29T12:05:18.800Z,101380.06
2023-01-29T12:07:51.376Z,101387.72
2023-01-29T12:10:35.872Z,101389.44
2023-01-29T12:13:07.665Z,101389.41
2023-01-29T12:15:35.751Z,101382.50
2023-01-29T12:18:21.728Z,101387.72
2023-01-29T12:21:05.656Z,101385.19
2023-01-29T12:23:45.060Z,101374.94
2023-01-29T12:26:19.689Z,101377.62
2023-01-29T12:29:08.168Z,101377.62
2023-01-29T12:32:02.370Z,101378.50
2023-01-29T12:34:48.594Z,101386.22
2023-01-29T12:37:28.108Z,101370.84
2023-01-29T12:39:55.365Z,101369.16
2023-01-29T12:42:23.814Z,101368.25
2023-01-29T12:44:57.898Z,101372.50
2023-01-29T12:47:28.365Z,101375.03
2023-01-29T12:49:58.354Z,101372.53
2023-01-29T12:52:41.645Z,101370.81
2023-01-29T12:55:37.543Z,101369.06
2023-01-29T12:58:24.352Z,101365.63
2023-01-29T13:00:54.753Z,101351.97
2023-01-29T13:03:46.464Z,101350.28
2023-01-29T13:06:17.029Z,101355.37
2023-01-29T13:09:04.833Z,101343.41
2023-01-29T13:11:39.496Z,101350.28
2023-01-29T13:14:08.724Z,101334.84
2023-01-29T13:16:43.927Z,101325.44
2023-01-29T13:19:24.346Z,101321.13
2023-01-29T13:21:52.204Z,101323.75
2023-01-29T13:24:22.111Z,101323.88
2023-01-29T13:26:49.929Z,101326.53
2023-01-29T13:29:28.822Z,101316.31
2023-01-29T13:31:58.574Z,101311.19
2023-01-29T13:34:28.585Z,101312.03
2023-01-29T13:36:58.700Z,101306.91
2023-01-29T13:39:55.624Z,101299.28
2023-01-29T13:42:37.499Z,101298.41
2023-01-29T13:45:07.265Z,101299.25
2023-01-29T13:47:40.104Z,101297.50
2023-01-29T13:50:08.350Z,101299.19
2023-01-29T13:52:43.038Z,101302.50
2023-01-29T13:55:19.944Z,101311.06
2023-01-29T13:57:47.657Z,101307.72
2023-01-29T14:00:20.633Z,101311.13
2023-01-29T14:03:14.088Z,101308.59
2023-01-29T14:05:56.831Z,101298.37
2023-01-29T14:08:37.828Z,101298.34
2023-01-29T14:11:17.107Z,101303.41
2023-01-29T14:13:49.164Z,101282.94
2023-01-29T14:16:16.281Z,101287.19
2023-01-29T14:18:48.180Z,101306.72
2023-01-29T14:21:34.382Z,101298.16
2023-01-29T14:24:21.577Z,101300.00
2023-01-29T14:26:54.618Z,101305.25
2023-01-29T14:29:34.397Z,101301.84
2023-01-29T14:32:19.677Z,101305.22
2023-01-29T14:35:22.051Z,101303.53
2023-01-29T14:37:55.264Z,101319.69
2023-01-29T14:40:24.306Z,101300.06
2023-01-29T14:43:01.979Z,101311.16
2023-01-29T14:45:34.161Z,101302.59
2023-01-29T14:48:17.610Z,101309.34
2023-01-29T14:50:56.544Z,101303.38
2023-01-29T14:53:31.977Z,101299.94
2023-01-29T14:56:05.401Z,101303.34
2023-01-29T14:58:43.971Z,101303.28
2023-01-29T15:01:28.516Z,101307.56
2023-01-29T15:04:19.192Z,101305.03
2023-01-29T15:06:48.443Z,101306.75
2023-01-29T15:10:13.533Z,101305.94
2023-01-29T15:12:52.821Z,101309.47
2023-01-29T15:15:56.547Z,101302.66
2023-01-29T15:18:46.410Z,101309.50
2023-01-29T15:21:16.351Z,101311.19
2023-01-29T15:23:44.561Z,101309.50
2023-01-29T15:26:24.705Z,101310.34
2023-01-29T15:29:04.259Z,101309.47
2023-01-29T15:31:32.327Z,101310.34
2023-01-29T15:34:04.814Z,101312.06
2023-01-29T15:36:32.427Z,101307.78
2023-01-29T15:39:11.976Z,101303.53
2023-01-29T15:41:39.153Z,101300.97
2023-01-29T15:44:21.037Z,101302.66
2023-01-29T15:46:56.634Z,101310.31
2023-01-29T15:49:30.475Z,101312.00
2023-01-29T15:52:04.743Z,101307.75
2023-01-29T15:54:32.973Z,101309.44
2023-01-29T15:57:01.006Z,101310.31
2023-01-29T15:59:34.672Z,101304.34
2023-01-29T16:02:35.971Z,101319.72
2023-01-29T16:05:05.318Z,101329.09
2023-01-29T16:07:32.780Z,101326.53
2023-01-29T16:10:00.456Z,101324.84
2023-01-29T16:12:28.297Z,101323.16
2023-01-29T16:14:55.590Z,101317.19
2023-01-29T16:17:23.525Z,101337.63
2023-01-29T16:20:01.907Z,101324.84
2023-01-29T16:22:36.844Z,101330.81
2023-01-29T16:25:12.486Z,101327.38
2023-01-29T16:27:43.270Z,101329.09
2023-01-29T16:30:15.358Z,101338.50
2023-01-29T16:32:42.495Z,101340.19
2023-01-29T16:35:15.469Z,101334.19
2023-01-29T16:37:47.772Z,101341.03
2023-01-29T16:40:37.940Z,101347.88
2023-01-29T16:43:17.562Z,101348.72
2023-01-29T16:46:03.084Z,101354.66
2023-01-29T16:48:34.797Z,101352.94
2023-01-29T16:51:06.381Z,101361.50
2023-01-29T16:53:35.657Z,101354.66
2023-01-29T16:56:06.667Z,101352.09
2023-01-29T16:58:34.598Z,101354.69
2023-01-29T17:01:04.422Z,101356.38
2023-01-29T17:03:33.966Z,101357.22
2023-01-29T17:06:17.368Z,101350.41
2023-01-29T17:08:44.623Z,101354.66
2023-01-29T17:11:14.320Z,101356.34
2023-01-29T17:13:44.912Z,101357.22
2023-01-29T17:16:37.671Z,101358.91
2023-01-29T17:19:17.759Z,101354.66
2023-01-29T17:21:45.498Z,101346.13
2023-01-29T17:24:12.593Z,101352.94
2023-01-29T17:26:40.118Z,101359.75
2023-01-29T17:29:13.146Z,101352.09
2023-01-29T17:31:40.670Z,101347.84
2023-01-29T17:34:17.847Z,101347.84
2023-01-29T17:36:45.316Z,101346.13
2023-01-29T17:39:19.753Z,101345.28
2023-01-29T17:41:57.693Z,101337.63
2023-01-29T17:44:28.421Z,101342.72
2023-01-29T17:46:55.641Z,101341.87
2023-01-29T17:49:28.100Z,101335.06
2023-01-29T17:51:56.910Z,101332.50
2023-01-29T17:54:25.650Z,101328.19
2023-01-29T17:56:53.448Z,101331.59
2023-01-29T17:59:22.923Z,101327.34
2023-01-29T18:01:50.791Z,101312.03
2023-01-29T18:04:18.293Z,101318.00
2023-01-29T18:06:47.879Z,101315.44
2023-01-29T18:09:16.433Z,101316.28
2023-01-29T18:11:43.937Z,101306.06
2023-01-29T18:14:14.256Z,101305.19
2023-01-29T18:16:43.515Z,101305.19
2023-01-29T18:19:22.528Z,101300.06
2023-01-29T18:21:50.404Z,101304.34
2023-01-29T18:24:18.746Z,101300.94
2023-01-29T18:26:46.929Z,101298.34
2023-01-29T18:29:14.286Z,101294.97
2023-01-29T18:31:41.775Z,101287.28
2023-01-29T18:34:09.032Z,101297.50
2023-01-29T18:36:36.217Z,101306.00
2023-01-29T18:39:03.736Z,101293.25
2023-01-29T18:41:31.069Z,101289.75
2023-01-29T18:43:58.256Z,101290.56
2023-01-29T18:46:25.844Z,101288.94
2023-01-29T18:48:53.093Z,101296.50
2023-01-29T18:51:20.284Z,101290.53
2023-01-29T18:53:51.408Z,101293.09
2023-01-29T18:56:19.861Z,101287.13
2023-01-29T18:58:52.018Z,101304.09
2023-01-29T19:01:23.656Z,101303.25
2023-01-29T19:03:50.848Z,101291.34
2023-01-29T19:06:17.952Z,101293.94
2023-01-29T19:08:47.350Z,101291.37
2023-01-29T19:11:14.612Z,101289.69
2023-01-29T19:13:44.916Z,101290.50
2023-01-29T19:16:13.564Z,101296.47
2023-01-29T19:18:40.808Z,101297.41
2023-01-29T19:21:10.510Z,101302.50
2023-01-29T19:23:38.585Z,101294.03
2023-01-29T19:26:05.964Z,101297.41
2023-01-29T19:28:33.726Z,101292.28
2023-01-29T19:31:01.316Z,101292.22
2023-01-29T19:33:28.721Z,101290.56
2023-01-29T19:35:56.954Z,101283.69
2023-01-29T19:38:24.471Z,101295.56
2023-01-29T19:40:52.229Z,101284.44
2023-01-29T19:43:19.457Z,101291.25
2023-01-29T19:45:53.583Z,101292.94
2023-01-29T19:48:21.760Z,101286.94
2023-01-29T19:50:57.417Z,101281.81
2023-01-29T19:53:25.452Z,101280.16
2023-01-29T19:56:05.246Z,101279.31
2023-01-29T19:58:33.049Z,101292.88
2023-01-29T20:01:02.973Z,101279.28
2023-01-29T20:03:30.915Z,101287.78
2023-01-29T20:06:05.879Z,101278.38
2023-01-29T20:08:34.041Z,101276.69
2023-01-29T20:11:02.131Z,101279.25
2023-01-29T20:13:29.928Z,101280.94
2023-01-29T20:15:57.459Z,101283.44
2023-01-29T20:18:24.685Z,101279.19
2023-01-29T20:20:53.120Z,101280.84
2023-01-29T20:23:37.721Z,101282.56
2023-01-29T20:26:13.379Z,101284.25
2023-01-29T20:28:41.009Z,101280.03
2023-01-29T20:31:09.425Z,101282.50
2023-01-29T20:33:39.556Z,101274.00
2023-01-29T20:36:10.080Z,101269.75
2023-01-29T20:38:37.726Z,101276.47
2023-01-29T20:41:10.886Z,101266.22
2023-01-29T20:43:38.400Z,101263.69
2023-01-29T20:46:05.637Z,101265.38
2023-01-29T20:48:33.157Z,101264.56
2023-01-29T20:51:05.363Z,101256.94
2023-01-29T20:53:32.678Z,101248.44
2023-01-29T20:55:59.856Z,101252.72
2023-01-29T20:58:27.505Z,101249.31
2023-01-29T21:00:54.631Z,101252.72
2023-01-29T21:03:21.759Z,101252.72
2023-01-29T21:05:50.271Z,101260.37
2023-01-29T21:08:17.399Z,101260.41
2023-01-29T21:10:45.412Z,101261.31
2023-01-29T21:13:12.884Z,101268.16
2023-01-29T21:15:41.886Z,101259.66
2023-01-29T21:18:08.941Z,101260.47
2023-01-29T21:20:36.696Z,101271.50
2023-01-29T21:23:06.846Z,101264.66
2023-01-29T21:25:34.434Z,101276.59
2023-01-29T21:28:04.301Z,101278.31
2023-01-29T21:30:31.696Z,101287.66
2023-01-29T21:32:58.788Z,101277.47
2023-01-29T21:35:26.186Z,101282.47
2023-01-29T21:37:53.252Z,101288.41
2023-01-29T21:40:25.154Z,101279.91
2023-01-29T21:43:11.578Z,101280.78
2023-01-29T21:45:39.656Z,101275.72
2023-01-29T21:48:07.734Z,101270.56
2023-01-29T21:50:34.927Z,101276.50
2023-01-29T21:53:02.251Z,101268.09
2023-01-29T21:55:29.707Z,101275.72
2023-01-29T21:57:56.835Z,101276.50
2023-01-29T22:00:24.070Z,101271.44
2023-01-29T22:02:51.531Z,101274.94
2023-01-29T22:05:20.181Z,101271.44
2023-01-29T22:07:49.183Z,101262.03
2023-01-29T22:10:17.994Z,101253.44
2023-01-29T22:12:45.571Z,101249.19
2023-01-29T22:15:13.108Z,101256.00
2023-01-29T22:17:41.521Z,101260.19
2023-01-29T22:20:13.516Z,101254.19
2023-01-29T22:22:40.945Z,101248.25
2023-01-29T22:25:08.819Z,101241.56
2023-01-29T22:27:35.960Z,101242.44
2023-01-29T22:30:04.568Z,101241.59
2023-01-29T22:32:32.343Z,101235.66
2023-01-29T22:34:59.527Z,101239.06
2023-01-29T22:37:27.008Z,101242.41
2023-01-29T22:39:54.158Z,101227.16
2023-01-29T22:42:21.343Z,101225.47
2023-01-29T22:44:48.833Z,101211.91
2023-01-29T22:47:16.274Z,101217.84
2023-01-29T22:49:45.542Z,101219.47
2023-01-29T22:52:13.812Z,101213.47
2023-01-29T22:54:42.569Z,101210.03
2023-01-29T22:57:14.071Z,101203.25
2023-01-29T22:59:41.569Z,101209.19
2023-01-29T23:02:09.361Z,101199.84
2023-01-29T23:04:37.034Z,101196.44
2023-01-29T23:07:04.475Z,101193.13
2023-01-29T23:09:31.545Z,101193.19
2023-01-29T23:11:58.703Z,101192.34
2023-01-29T23:14:26.187Z,101188.09
2023-01-29T23:16:53.337Z,101198.28
2023-01-29T23:19:20.597Z,101193.16
2023-01-29T23:21:48.091Z,101189.78
2023-01-29T23:24:15.522Z,101184.59
2023-01-29T23:27:01.051Z,101183.81
2023-01-29T23:29:28.703Z,101182.13
2023-01-29T23:31:55.915Z,101170.16
2023-01-29T23:34:23.056Z,101176.19
2023-01-29T23:36:50.507Z,101167.75
2023-01-29T23:39:17.724Z,101163.53
2023-01-29T23:41:44.932Z,101157.66
2023-01-29T23:44:12.597Z,101155.09
2023-01-29T23:46:40.205Z,101150.88
2023-01-29T23:49:07.709Z,101155.09
2023-01-29T23:51:35.181Z,101146.66
2023-01-29T23:54:02.334Z,101156.03
2023-01-29T23:56:29.537Z,101158.50
2023-01-29T23:58:57.835Z,101154.22
